sensor_id;sensor_type;location;lat;lon;timestamp;P1;durP1;ratioP1;P2;durP2;ratioP2
37365;SDS011;23239;51.504;7.456;2024-01-10T00:00:00;13.2;;;8.5;;
37365;SDS011;23239;51.504;7.456;2024-01-10T00:01:00;13.2;;;8.5;;
37365;SDS011;23239;51.504;7.456;2024-01-10T00:02:00;13.2;;;8.5;;
37365;SDS011;23239;51.504;7.456;2024-01-10T00:03:00;13.2;;;8.5;;
37365;SDS011;23239;51.504;7.456;2024-01-10T00:04:00;11.4;;;8.0;;
37365;SDS011;23239;51.504;7.456;2024-01-10T00:05:00;11.4;;;8.0;;
37365;SDS011;23239;51.504;7.456;2024-01-10T00:06:00;11.4;;;8.0;;
37365;SDS011;23239;51.504;7.456;2024-01-10T00:07:00;11.4;;;8.0;;
37365;SDS011;23239;51.504;7.456;2024-01-10T00:08:00;11.4;;;8.0;;
37365;SDS011;23239;51.504;7.456;2024-01-10T00:09:00;11.9;;;7.9;;
37365;SDS011;23239;51.504;7.456;2024-01-10T00:10:00;11.9;;;7.9;;
37365;SDS011;23239;51.504;7.456;2024-01-10T00:11:00;11.9;;;7.9;;
37365;SDS011;23239;51.504;7.456;2024-01-10T00:12:00;11.9;;;7.9;;
37365;SDS011;23239;51.504;7.456;2024-01-10T00:13:00;11.9;;;7.9;;
37365;SDS011;23239;51.504;7.456;2024-01-10T00:14:00;13.0;;;7.9;;
37365;SDS011;23239;51.504;7.456;2024-01-10T00:15:00;13.0;;;7.9;;
37365;SDS011;23239;51.504;7.456;2024-01-10T00:16:00;13.0;;;7.9;;
37365;SDS011;23239;51.504;7.456;2024-01-10T00:17:00;13.0;;;7.9;;
37365;SDS011;23239;51.504;7.456;2024-01-10T00:18:00;13.0;;;7.9;;
37365;SDS011;23239;51.504;7.456;2024-01-10T00:19:00;11.7;;;8.0;;
37365;SDS011;23239;51.504;7.456;2024-01-10T00:20:00;11.7;;;8.0;;
37365;SDS011;23239;51.504;7.456;2024-01-10T00:21:00;11.7;;;8.0;;
37365;SDS011;23239;51.504;7.456;2024-01-10T00:22:00;11.7;;;8.0;;
37365;SDS011;23239;51.504;7.456;2024-01-10T00:23:00;11.7;;;8.0;;
37365;SDS011;23239;51.504;7.456;2024-01-10T00:24:00;11.6;;;7.9;;
37365;SDS011;23239;51.504;7.456;2024-01-10T00:25:00;11.6;;;7.9;;
37365;SDS011;23239;51.504;7.456;2024-01-10T00:26:00;11.6;;;7.9;;
37365;SDS011;23239;51.504;7.456;2024-01-10T00:27:00;11.6;;;7.9;;
37365;SDS011;23239;51.504;7.456;2024-01-10T00:28:00;11.6;;;7.9;;
37365;SDS011;23239;51.504;7.456;2024-01-10T00:29:00;12.7;;;8.3;;
37365;SDS011;23239;51.504;7.456;2024-01-10T00:30:00;12.7;;;8.3;;
37365;SDS011;23239;51.504;7.456;2024-01-10T00:31:00;12.7;;;8.3;;
37365;SDS011;23239;51.504;7.456;2024-01-10T00:32:00;12.7;;;8.3;;
37365;SDS011;23239;51.504;7.456;2024-01-10T00:33:00;12.7;;;8.3;;
37365;SDS011;23239;51.504;7.456;2024-01-10T00:34:00;13.6;;;8.1;;
37365;SDS011;23239;51.504;7.456;2024-01-10T00:35:00;13.6;;;8.1;;
37365;SDS011;23239;51.504;7.456;2024-01-10T00:36:00;13.6;;;8.1;;
37365;SDS011;23239;51.504;7.456;2024-01-10T00:37:00;13.6;;;8.1;;
37365;SDS011;23239;51.504;7.456;2024-01-10T00:38:00;13.6;;;8.1;;
37365;SDS011;23239;51.504;7.456;2024-01-10T00:39:00;12.6;;;8.4;;
37365;SDS011;23239;51.504;7.456;2024-01-10T00:40:00;12.6;;;8.4;;
37365;SDS011;23239;51.504;7.456;2024-01-10T00:41:00;12.6;;;8.4;;
37365;SDS011;23239;51.504;7.456;2024-01-10T00:42:00;12.6;;;8.4;;
37365;SDS011;23239;51.504;7.456;2024-01-10T00:43:00;12.6;;;8.4;;
37365;SDS011;23239;51.504;7.456;2024-01-10T00:44:00;10.5;;;7.7;;
37365;SDS011;23239;51.504;7.456;2024-01-10T00:45:00;10.5;;;7.7;;
37365;SDS011;23239;51.504;7.456;2024-01-10T00:46:00;10.5;;;7.7;;
37365;SDS011;23239;51.504;7.456;2024-01-10T00:47:00;10.5;;;7.7;;
37365;SDS011;23239;51.504;7.456;2024-01-10T00:48:00;10.5;;;7.7;;
37365;SDS011;23239;51.504;7.456;2024-01-10T00:49:00;12.1;;;7.9;;
37365;SDS011;23239;51.504;7.456;2024-01-10T00:50:00;12.1;;;7.9;;
37365;SDS011;23239;51.504;7.456;2024-01-10T00:51:00;12.1;;;7.9;;
37365;SDS011;23239;51.504;7.456;2024-01-10T00:52:00;12.1;;;7.9;;
37365;SDS011;23239;51.504;7.456;2024-01-10T00:53:00;12.1;;;7.9;;
37365;SDS011;23239;51.504;7.456;2024-01-10T00:54:00;12.4;;;7.9;;
37365;SDS011;23239;51.504;7.456;2024-01-10T00:55:00;12.4;;;7.9;;
37365;SDS011;23239;51.504;7.456;2024-01-10T00:56:00;12.4;;;7.9;;
37365;SDS011;23239;51.504;7.456;2024-01-10T00:57:00;12.4;;;7.9;;
37365;SDS011;23239;51.504;7.456;2024-01-10T00:58:00;12.4;;;7.9;;
37365;SDS011;23239;51.504;7.456;2024-01-10T00:59:00;13.6;;;7.8;;
37365;SDS011;23239;51.504;7.456;2024-01-10T01:00:00;13.6;;;7.8;;
37365;SDS011;23239;51.504;7.456;2024-01-10T01:01:00;13.6;;;7.8;;
37365;SDS011;23239;51.504;7.456;2024-01-10T01:02:00;13.6;;;7.8;;
37365;SDS011;23239;51.504;7.456;2024-01-10T01:03:00;13.6;;;7.8;;
37365;SDS011;23239;51.504;7.456;2024-01-10T01:04:00;12.0;;;7.6;;
37365;SDS011;23239;51.504;7.456;2024-01-10T01:05:00;12.0;;;7.6;;
37365;SDS011;23239;51.504;7.456;2024-01-10T01:06:00;12.0;;;7.6;;
37365;SDS011;23239;51.504;7.456;2024-01-10T01:07:00;12.0;;;7.6;;
37365;SDS011;23239;51.504;7.456;2024-01-10T01:08:00;12.0;;;7.6;;
37365;SDS011;23239;51.504;7.456;2024-01-10T01:09:00;11.8;;;7.4;;
37365;SDS011;23239;51.504;7.456;2024-01-10T01:10:00;11.8;;;7.4;;
37365;SDS011;23239;51.504;7.456;2024-01-10T01:11:00;11.8;;;7.4;;
37365;SDS011;23239;51.504;7.456;2024-01-10T01:12:00;11.8;;;7.4;;
37365;SDS011;23239;51.504;7.456;2024-01-10T01:13:00;11.8;;;7.4;;
37365;SDS011;23239;51.504;7.456;2024-01-10T01:14:00;11.9;;;7.7;;
37365;SDS011;23239;51.504;7.456;2024-01-10T01:15:00;11.9;;;7.7;;
37365;SDS011;23239;51.504;7.456;2024-01-10T01:16:00;11.9;;;7.7;;
37365;SDS011;23239;51.504;7.456;2024-01-10T01:17:00;11.9;;;7.7;;
37365;SDS011;23239;51.504;7.456;2024-01-10T01:18:00;11.9;;;7.7;;
37365;SDS011;23239;51.504;7.456;2024-01-10T01:19:00;11.6;;;7.5;;
37365;SDS011;23239;51.504;7.456;2024-01-10T01:20:00;11.6;;;7.5;;
37365;SDS011;23239;51.504;7.456;2024-01-10T01:21:00;11.6;;;7.5;;
37365;SDS011;23239;51.504;7.456;2024-01-10T01:22:00;11.6;;;7.5;;
37365;SDS011;23239;51.504;7.456;2024-01-10T01:23:00;11.6;;;7.5;;
37365;SDS011;23239;51.504;7.456;2024-01-10T01:24:00;12.3;;;8.1;;
37365;SDS011;23239;51.504;7.456;2024-01-10T01:25:00;12.3;;;8.1;;
37365;SDS011;23239;51.504;7.456;2024-01-10T01:26:00;12.3;;;8.1;;
37365;SDS011;23239;51.504;7.456;2024-01-10T01:27:00;12.3;;;8.1;;
37365;SDS011;23239;51.504;7.456;2024-01-10T01:28:00;12.3;;;8.1;;
37365;SDS011;23239;51.504;7.456;2024-01-10T01:29:00;11.8;;;7.8;;
37365;SDS011;23239;51.504;7.456;2024-01-10T01:30:00;11.8;;;7.8;;
37365;SDS011;23239;51.504;7.456;2024-01-10T01:31:00;11.8;;;7.8;;
37365;SDS011;23239;51.504;7.456;2024-01-10T01:32:00;11.8;;;7.8;;
37365;SDS011;23239;51.504;7.456;2024-01-10T01:33:00;11.8;;;7.8;;
37365;SDS011;23239;51.504;7.456;2024-01-10T01:34:00;12.6;;;8.0;;
37365;SDS011;23239;51.504;7.456;2024-01-10T01:35:00;12.6;;;8.0;;
37365;SDS011;23239;51.504;7.456;2024-01-10T01:36:00;12.6;;;8.0;;
37365;SDS011;23239;51.504;7.456;2024-01-10T01:37:00;12.6;;;8.0;;
37365;SDS011;23239;51.504;7.456;2024-01-10T01:38:00;12.6;;;8.0;;
37365;SDS011;23239;51.504;7.456;2024-01-10T01:39:00;11.8;;;8.0;;
37365;SDS011;23239;51.504;7.456;2024-01-10T01:40:00;11.8;;;8.0;;
37365;SDS011;23239;51.504;7.456;2024-01-10T01:41:00;11.8;;;8.0;;
37365;SDS011;23239;51.504;7.456;2024-01-10T01:42:00;11.8;;;8.0;;
37365;SDS011;23239;51.504;7.456;2024-01-10T01:43:00;11.8;;;8.0;;
37365;SDS011;23239;51.504;7.456;2024-01-10T01:44:00;13.0;;;8.0;;
37365;SDS011;23239;51.504;7.456;2024-01-10T01:45:00;13.0;;;8.0;;
37365;SDS011;23239;51.504;7.456;2024-01-10T01:46:00;13.0;;;8.0;;
37365;SDS011;23239;51.504;7.456;2024-01-10T01:47:00;13.0;;;8.0;;
37365;SDS011;23239;51.504;7.456;2024-01-10T01:48:00;13.0;;;8.0;;
37365;SDS011;23239;51.504;7.456;2024-01-10T01:49:00;12.4;;;8.1;;
37365;SDS011;23239;51.504;7.456;2024-01-10T01:50:00;12.4;;;8.1;;
37365;SDS011;23239;51.504;7.456;2024-01-10T01:51:01;12.4;;;8.1;;
37365;SDS011;23239;51.504;7.456;2024-01-10T01:52:00;12.4;;;8.1;;
37365;SDS011;23239;51.504;7.456;2024-01-10T01:53:00;12.4;;;8.1;;
37365;SDS011;23239;51.504;7.456;2024-01-10T01:54:00;13.1;;;8.4;;
37365;SDS011;23239;51.504;7.456;2024-01-10T01:55:00;13.1;;;8.4;;
37365;SDS011;23239;51.504;7.456;2024-01-10T01:56:00;13.1;;;8.4;;
37365;SDS011;23239;51.504;7.456;2024-01-10T01:57:00;13.1;;;8.4;;
37365;SDS011;23239;51.504;7.456;2024-01-10T01:58:00;13.1;;;8.4;;
37365;SDS011;23239;51.504;7.456;2024-01-10T01:59:00;13.1;;;8.6;;
37365;SDS011;23239;51.504;7.456;2024-01-10T02:00:00;13.1;;;8.6;;
37365;SDS011;23239;51.504;7.456;2024-01-10T02:01:00;13.1;;;8.6;;
37365;SDS011;23239;51.504;7.456;2024-01-10T02:02:00;13.1;;;8.6;;
37365;SDS011;23239;51.504;7.456;2024-01-10T02:03:00;13.1;;;8.6;;
37365;SDS011;23239;51.504;7.456;2024-01-10T02:04:00;12.5;;;8.9;;
37365;SDS011;23239;51.504;7.456;2024-01-10T02:05:00;12.5;;;8.9;;
37365;SDS011;23239;51.504;7.456;2024-01-10T02:06:00;12.5;;;8.9;;
37365;SDS011;23239;51.504;7.456;2024-01-10T02:07:00;12.5;;;8.9;;
37365;SDS011;23239;51.504;7.456;2024-01-10T02:08:00;12.5;;;8.9;;
37365;SDS011;23239;51.504;7.456;2024-01-10T02:09:00;13.4;;;8.2;;
37365;SDS011;23239;51.504;7.456;2024-01-10T02:10:00;13.4;;;8.2;;
37365;SDS011;23239;51.504;7.456;2024-01-10T02:11:00;13.4;;;8.2;;
37365;SDS011;23239;51.504;7.456;2024-01-10T02:12:00;13.4;;;8.2;;
37365;SDS011;23239;51.504;7.456;2024-01-10T02:13:00;13.4;;;8.2;;
37365;SDS011;23239;51.504;7.456;2024-01-10T02:14:00;13.9;;;9.3;;
37365;SDS011;23239;51.504;7.456;2024-01-10T02:15:00;13.9;;;9.3;;
37365;SDS011;23239;51.504;7.456;2024-01-10T02:16:00;13.9;;;9.3;;
37365;SDS011;23239;51.504;7.456;2024-01-10T02:17:00;13.9;;;9.3;;
37365;SDS011;23239;51.504;7.456;2024-01-10T02:18:00;13.9;;;9.3;;
37365;SDS011;23239;51.504;7.456;2024-01-10T02:19:00;16.2;;;8.5;;
37365;SDS011;23239;51.504;7.456;2024-01-10T02:20:08;16.2;;;8.5;;
37365;SDS011;23239;51.504;7.456;2024-01-10T02:21:00;16.2;;;8.5;;
37365;SDS011;23239;51.504;7.456;2024-01-10T02:22:00;16.2;;;8.5;;
37365;SDS011;23239;51.504;7.456;2024-01-10T02:23:00;16.2;;;8.5;;
37365;SDS011;23239;51.504;7.456;2024-01-10T02:24:00;13.0;;;8.7;;
37365;SDS011;23239;51.504;7.456;2024-01-10T02:25:00;13.0;;;8.7;;
37365;SDS011;23239;51.504;7.456;2024-01-10T02:26:00;13.0;;;8.7;;
37365;SDS011;23239;51.504;7.456;2024-01-10T02:27:00;13.0;;;8.7;;
37365;SDS011;23239;51.504;7.456;2024-01-10T02:28:00;13.0;;;8.7;;
37365;SDS011;23239;51.504;7.456;2024-01-10T02:29:00;14.0;;;9.2;;
37365;SDS011;23239;51.504;7.456;2024-01-10T02:30:00;14.0;;;9.2;;
37365;SDS011;23239;51.504;7.456;2024-01-10T02:31:00;14.0;;;9.2;;
37365;SDS011;23239;51.504;7.456;2024-01-10T02:32:00;14.0;;;9.2;;
37365;SDS011;23239;51.504;7.456;2024-01-10T02:33:00;14.0;;;9.2;;
37365;SDS011;23239;51.504;7.456;2024-01-10T02:34:00;12.9;;;8.5;;
37365;SDS011;23239;51.504;7.456;2024-01-10T02:35:00;12.9;;;8.5;;
37365;SDS011;23239;51.504;7.456;2024-01-10T02:36:00;12.9;;;8.5;;
37365;SDS011;23239;51.504;7.456;2024-01-10T02:37:00;12.9;;;8.5;;
37365;SDS011;23239;51.504;7.456;2024-01-10T02:38:01;12.9;;;8.5;;
37365;SDS011;23239;51.504;7.456;2024-01-10T02:39:00;12.7;;;8.6;;
37365;SDS011;23239;51.504;7.456;2024-01-10T02:40:00;12.7;;;8.6;;
37365;SDS011;23239;51.504;7.456;2024-01-10T02:41:00;12.7;;;8.6;;
37365;SDS011;23239;51.504;7.456;2024-01-10T02:42:00;12.7;;;8.6;;
37365;SDS011;23239;51.504;7.456;2024-01-10T02:43:00;12.7;;;8.6;;
37365;SDS011;23239;51.504;7.456;2024-01-10T02:44:00;12.4;;;8.9;;
37365;SDS011;23239;51.504;7.456;2024-01-10T02:45:00;12.4;;;8.9;;
37365;SDS011;23239;51.504;7.456;2024-01-10T02:46:00;12.4;;;8.9;;
37365;SDS011;23239;51.504;7.456;2024-01-10T02:47:00;12.4;;;8.9;;
37365;SDS011;23239;51.504;7.456;2024-01-10T02:48:00;12.4;;;8.9;;
37365;SDS011;23239;51.504;7.456;2024-01-10T02:49:00;13.4;;;9.4;;
37365;SDS011;23239;51.504;7.456;2024-01-10T02:50:00;13.4;;;9.4;;
37365;SDS011;23239;51.504;7.456;2024-01-10T02:51:00;13.4;;;9.4;;
37365;SDS011;23239;51.504;7.456;2024-01-10T02:52:00;13.4;;;9.4;;
37365;SDS011;23239;51.504;7.456;2024-01-10T02:53:00;13.4;;;9.4;;
37365;SDS011;23239;51.504;7.456;2024-01-10T02:54:00;14.2;;;9.5;;
37365;SDS011;23239;51.504;7.456;2024-01-10T02:55:00;14.2;;;9.5;;
37365;SDS011;23239;51.504;7.456;2024-01-10T02:56:00;14.2;;;9.5;;
37365;SDS011;23239;51.504;7.456;2024-01-10T02:57:00;14.2;;;9.5;;
37365;SDS011;23239;51.504;7.456;2024-01-10T02:58:00;14.2;;;9.5;;
37365;SDS011;23239;51.504;7.456;2024-01-10T02:59:00;14.1;;;10.0;;
37365;SDS011;23239;51.504;7.456;2024-01-10T03:00:00;14.1;;;10.0;;
37365;SDS011;23239;51.504;7.456;2024-01-10T03:01:00;14.1;;;10.0;;
37365;SDS011;23239;51.504;7.456;2024-01-10T03:02:00;14.1;;;10.0;;
37365;SDS011;23239;51.504;7.456;2024-01-10T03:03:00;14.1;;;10.0;;
37365;SDS011;23239;51.504;7.456;2024-01-10T03:04:00;13.2;;;8.8;;
37365;SDS011;23239;51.504;7.456;2024-01-10T03:05:00;13.2;;;8.8;;
37365;SDS011;23239;51.504;7.456;2024-01-10T03:06:00;13.2;;;8.8;;
37365;SDS011;23239;51.504;7.456;2024-01-10T03:07:00;13.2;;;8.8;;
37365;SDS011;23239;51.504;7.456;2024-01-10T03:08:00;13.2;;;8.8;;
37365;SDS011;23239;51.504;7.456;2024-01-10T03:09:00;14.1;;;9.3;;
37365;SDS011;23239;51.504;7.456;2024-01-10T03:10:00;14.1;;;9.3;;
37365;SDS011;23239;51.504;7.456;2024-01-10T03:11:00;14.1;;;9.3;;
37365;SDS011;23239;51.504;7.456;2024-01-10T03:12:00;14.1;;;9.3;;
37365;SDS011;23239;51.504;7.456;2024-01-10T03:13:00;14.1;;;9.3;;
37365;SDS011;23239;51.504;7.456;2024-01-10T03:14:01;14.3;;;9.5;;
37365;SDS011;23239;51.504;7.456;2024-01-10T03:15:00;14.3;;;9.5;;
37365;SDS011;23239;51.504;7.456;2024-01-10T03:16:00;14.3;;;9.5;;
37365;SDS011;23239;51.504;7.456;2024-01-10T03:17:00;14.3;;;9.5;;
37365;SDS011;23239;51.504;7.456;2024-01-10T03:18:00;14.3;;;9.5;;
37365;SDS011;23239;51.504;7.456;2024-01-10T03:19:00;14.3;;;8.9;;
37365;SDS011;23239;51.504;7.456;2024-01-10T03:20:00;14.3;;;8.9;;
37365;SDS011;23239;51.504;7.456;2024-01-10T03:21:00;14.3;;;8.9;;
37365;SDS011;23239;51.504;7.456;2024-01-10T03:22:00;14.3;;;8.9;;
37365;SDS011;23239;51.504;7.456;2024-01-10T03:23:00;14.3;;;8.9;;
37365;SDS011;23239;51.504;7.456;2024-01-10T03:24:00;13.9;;;8.7;;
37365;SDS011;23239;51.504;7.456;2024-01-10T03:25:00;13.9;;;8.7;;
37365;SDS011;23239;51.504;7.456;2024-01-10T03:26:00;13.9;;;8.7;;
37365;SDS011;23239;51.504;7.456;2024-01-10T03:27:00;13.9;;;8.7;;
37365;SDS011;23239;51.504;7.456;2024-01-10T03:28:00;13.9;;;8.7;;
37365;SDS011;23239;51.504;7.456;2024-01-10T03:29:00;13.9;;;9.1;;
37365;SDS011;23239;51.504;7.456;2024-01-10T03:30:00;13.9;;;9.1;;
37365;SDS011;23239;51.504;7.456;2024-01-10T03:31:00;13.9;;;9.1;;
37365;SDS011;23239;51.504;7.456;2024-01-10T03:32:00;13.9;;;9.1;;
37365;SDS011;23239;51.504;7.456;2024-01-10T03:33:00;13.9;;;9.1;;
37365;SDS011;23239;51.504;7.456;2024-01-10T03:34:00;14.8;;;9.6;;
37365;SDS011;23239;51.504;7.456;2024-01-10T03:35:00;14.8;;;9.6;;
37365;SDS011;23239;51.504;7.456;2024-01-10T03:36:00;14.8;;;9.6;;
37365;SDS011;23239;51.504;7.456;2024-01-10T03:37:00;14.8;;;9.6;;
37365;SDS011;23239;51.504;7.456;2024-01-10T03:38:00;14.8;;;9.6;;
37365;SDS011;23239;51.504;7.456;2024-01-10T03:39:00;16.1;;;9.5;;
37365;SDS011;23239;51.504;7.456;2024-01-10T03:40:00;16.1;;;9.5;;
37365;SDS011;23239;51.504;7.456;2024-01-10T03:41:00;16.1;;;9.5;;
37365;SDS011;23239;51.504;7.456;2024-01-10T03:42:00;16.1;;;9.5;;
37365;SDS011;23239;51.504;7.456;2024-01-10T03:43:00;16.1;;;9.5;;
37365;SDS011;23239;51.504;7.456;2024-01-10T03:44:00;13.3;;;9.3;;
37365;SDS011;23239;51.504;7.456;2024-01-10T03:45:00;13.3;;;9.3;;
37365;SDS011;23239;51.504;7.456;2024-01-10T03:46:00;13.3;;;9.3;;
37365;SDS011;23239;51.504;7.456;2024-01-10T03:47:00;13.3;;;9.3;;
37365;SDS011;23239;51.504;7.456;2024-01-10T03:48:00;13.3;;;9.3;;
37365;SDS011;23239;51.504;7.456;2024-01-10T03:49:00;15.1;;;9.6;;
37365;SDS011;23239;51.504;7.456;2024-01-10T03:50:00;15.1;;;9.6;;
37365;SDS011;23239;51.504;7.456;2024-01-10T03:51:00;15.1;;;9.6;;
37365;SDS011;23239;51.504;7.456;2024-01-10T03:52:00;15.1;;;9.6;;
37365;SDS011;23239;51.504;7.456;2024-01-10T03:53:00;15.1;;;9.6;;
37365;SDS011;23239;51.504;7.456;2024-01-10T03:54:00;14.8;;;9.2;;
37365;SDS011;23239;51.504;7.456;2024-01-10T03:55:00;14.8;;;9.2;;
37365;SDS011;23239;51.504;7.456;2024-01-10T03:56:03;14.8;;;9.2;;
37365;SDS011;23239;51.504;7.456;2024-01-10T03:57:00;14.8;;;9.2;;
37365;SDS011;23239;51.504;7.456;2024-01-10T03:58:00;14.8;;;9.2;;
37365;SDS011;23239;51.504;7.456;2024-01-10T03:59:00;13.9;;;9.5;;
37365;SDS011;23239;51.504;7.456;2024-01-10T04:00:00;13.9;;;9.5;;
37365;SDS011;23239;51.504;7.456;2024-01-10T04:01:03;13.9;;;9.5;;
37365;SDS011;23239;51.504;7.456;2024-01-10T04:02:00;13.9;;;9.5;;
37365;SDS011;23239;51.504;7.456;2024-01-10T04:03:00;13.9;;;9.5;;
37365;SDS011;23239;51.504;7.456;2024-01-10T04:04:00;15.3;;;9.7;;
37365;SDS011;23239;51.504;7.456;2024-01-10T04:05:00;15.3;;;9.7;;
37365;SDS011;23239;51.504;7.456;2024-01-10T04:06:00;15.3;;;9.7;;
37365;SDS011;23239;51.504;7.456;2024-01-10T04:07:00;15.3;;;9.7;;
37365;SDS011;23239;51.504;7.456;2024-01-10T04:08:00;15.3;;;9.7;;
37365;SDS011;23239;51.504;7.456;2024-01-10T04:09:00;14.9;;;10.0;;
37365;SDS011;23239;51.504;7.456;2024-01-10T04:10:00;14.9;;;10.0;;
37365;SDS011;23239;51.504;7.456;2024-01-10T04:11:00;14.9;;;10.0;;
37365;SDS011;23239;51.504;7.456;2024-01-10T04:12:00;14.9;;;10.0;;
37365;SDS011;23239;51.504;7.456;2024-01-10T04:13:00;14.9;;;10.0;;
37365;SDS011;23239;51.504;7.456;2024-01-10T04:14:00;15.2;;;9.7;;
37365;SDS011;23239;51.504;7.456;2024-01-10T04:15:00;15.2;;;9.7;;
37365;SDS011;23239;51.504;7.456;2024-01-10T04:16:00;15.2;;;9.7;;
37365;SDS011;23239;51.504;7.456;2024-01-10T04:17:00;15.2;;;9.7;;
37365;SDS011;23239;51.504;7.456;2024-01-10T04:18:00;15.2;;;9.7;;
37365;SDS011;23239;51.504;7.456;2024-01-10T04:19:00;13.9;;;9.4;;
37365;SDS011;23239;51.504;7.456;2024-01-10T04:20:00;13.9;;;9.4;;
37365;SDS011;23239;51.504;7.456;2024-01-10T04:21:00;13.9;;;9.4;;
37365;SDS011;23239;51.504;7.456;2024-01-10T04:22:00;13.9;;;9.4;;
37365;SDS011;23239;51.504;7.456;2024-01-10T04:23:00;13.9;;;9.4;;
37365;SDS011;23239;51.504;7.456;2024-01-10T04:24:00;13.4;;;9.5;;
37365;SDS011;23239;51.504;7.456;2024-01-10T04:25:00;13.4;;;9.5;;
37365;SDS011;23239;51.504;7.456;2024-01-10T04:26:00;13.4;;;9.5;;
37365;SDS011;23239;51.504;7.456;2024-01-10T04:27:00;13.4;;;9.5;;
37365;SDS011;23239;51.504;7.456;2024-01-10T04:28:00;13.4;;;9.5;;
37365;SDS011;23239;51.504;7.456;2024-01-10T04:29:00;16.4;;;10.1;;
37365;SDS011;23239;51.504;7.456;2024-01-10T04:30:00;16.4;;;10.1;;
37365;SDS011;23239;51.504;7.456;2024-01-10T04:31:00;16.4;;;10.1;;
37365;SDS011;23239;51.504;7.456;2024-01-10T04:32:00;16.4;;;10.1;;
37365;SDS011;23239;51.504;7.456;2024-01-10T04:33:00;16.4;;;10.1;;
37365;SDS011;23239;51.504;7.456;2024-01-10T04:34:00;15.5;;;9.8;;
37365;SDS011;23239;51.504;7.456;2024-01-10T04:35:00;15.5;;;9.8;;
37365;SDS011;23239;51.504;7.456;2024-01-10T04:36:00;15.5;;;9.8;;
37365;SDS011;23239;51.504;7.456;2024-01-10T04:37:00;15.5;;;9.8;;
37365;SDS011;23239;51.504;7.456;2024-01-10T04:38:00;15.5;;;9.8;;
37365;SDS011;23239;51.504;7.456;2024-01-10T04:39:00;13.2;;;9.2;;
37365;SDS011;23239;51.504;7.456;2024-01-10T04:40:00;13.2;;;9.2;;
37365;SDS011;23239;51.504;7.456;2024-01-10T04:41:00;13.2;;;9.2;;
37365;SDS011;23239;51.504;7.456;2024-01-10T04:42:00;13.2;;;9.2;;
37365;SDS011;23239;51.504;7.456;2024-01-10T04:43:00;13.2;;;9.2;;
37365;SDS011;23239;51.504;7.456;2024-01-10T04:44:00;13.9;;;9.9;;
37365;SDS011;23239;51.504;7.456;2024-01-10T04:45:00;13.9;;;9.9;;
37365;SDS011;23239;51.504;7.456;2024-01-10T04:46:00;13.9;;;9.9;;
37365;SDS011;23239;51.504;7.456;2024-01-10T04:47:00;13.9;;;9.9;;
37365;SDS011;23239;51.504;7.456;2024-01-10T04:48:00;13.9;;;9.9;;
37365;SDS011;23239;51.504;7.456;2024-01-10T04:49:00;14.6;;;9.5;;
37365;SDS011;23239;51.504;7.456;2024-01-10T04:50:00;14.6;;;9.5;;
37365;SDS011;23239;51.504;7.456;2024-01-10T04:51:00;14.6;;;9.5;;
37365;SDS011;23239;51.504;7.456;2024-01-10T04:52:00;14.6;;;9.5;;
37365;SDS011;23239;51.504;7.456;2024-01-10T04:53:00;14.6;;;9.5;;
37365;SDS011;23239;51.504;7.456;2024-01-10T04:54:00;14.3;;;9.4;;
37365;SDS011;23239;51.504;7.456;2024-01-10T04:55:00;14.3;;;9.4;;
37365;SDS011;23239;51.504;7.456;2024-01-10T04:56:00;14.3;;;9.4;;
37365;SDS011;23239;51.504;7.456;2024-01-10T04:57:00;14.3;;;9.4;;
37365;SDS011;23239;51.504;7.456;2024-01-10T04:58:00;14.3;;;9.4;;
37365;SDS011;23239;51.504;7.456;2024-01-10T04:59:00;14.5;;;9.5;;
37365;SDS011;23239;51.504;7.456;2024-01-10T05:00:00;14.5;;;9.5;;
37365;SDS011;23239;51.504;7.456;2024-01-10T05:01:00;14.5;;;9.5;;
37365;SDS011;23239;51.504;7.456;2024-01-10T05:02:00;14.5;;;9.5;;
37365;SDS011;23239;51.504;7.456;2024-01-10T05:03:00;14.5;;;9.5;;
37365;SDS011;23239;51.504;7.456;2024-01-10T05:04:00;16.8;;;10.5;;
37365;SDS011;23239;51.504;7.456;2024-01-10T05:05:00;16.8;;;10.5;;
37365;SDS011;23239;51.504;7.456;2024-01-10T05:06:00;16.8;;;10.5;;
37365;SDS011;23239;51.504;7.456;2024-01-10T05:07:00;16.8;;;10.5;;
37365;SDS011;23239;51.504;7.456;2024-01-10T05:08:00;16.8;;;10.5;;
37365;SDS011;23239;51.504;7.456;2024-01-10T05:09:00;15.2;;;9.5;;
37365;SDS011;23239;51.504;7.456;2024-01-10T05:10:00;15.2;;;9.5;;
37365;SDS011;23239;51.504;7.456;2024-01-10T05:11:00;15.2;;;9.5;;
37365;SDS011;23239;51.504;7.456;2024-01-10T05:12:00;15.2;;;9.5;;
37365;SDS011;23239;51.504;7.456;2024-01-10T05:13:00;15.2;;;9.5;;
37365;SDS011;23239;51.504;7.456;2024-01-10T05:14:00;15.5;;;10.9;;
37365;SDS011;23239;51.504;7.456;2024-01-10T05:15:00;15.5;;;10.9;;
37365;SDS011;23239;51.504;7.456;2024-01-10T05:16:00;15.5;;;10.9;;
37365;SDS011;23239;51.504;7.456;2024-01-10T05:17:00;15.5;;;10.9;;
37365;SDS011;23239;51.504;7.456;2024-01-10T05:18:00;15.5;;;10.9;;
37365;SDS011;23239;51.504;7.456;2024-01-10T05:19:00;16.9;;;10.6;;
37365;SDS011;23239;51.504;7.456;2024-01-10T05:20:00;16.9;;;10.6;;
37365;SDS011;23239;51.504;7.456;2024-01-10T05:21:00;16.9;;;10.6;;
37365;SDS011;23239;51.504;7.456;2024-01-10T05:22:00;16.9;;;10.6;;
37365;SDS011;23239;51.504;7.456;2024-01-10T05:23:00;16.9;;;10.6;;
37365;SDS011;23239;51.504;7.456;2024-01-10T05:24:00;15.0;;;10.1;;
37365;SDS011;23239;51.504;7.456;2024-01-10T05:25:00;15.0;;;10.1;;
37365;SDS011;23239;51.504;7.456;2024-01-10T05:26:00;15.0;;;10.1;;
37365;SDS011;23239;51.504;7.456;2024-01-10T05:27:00;15.0;;;10.1;;
37365;SDS011;23239;51.504;7.456;2024-01-10T05:28:00;15.0;;;10.1;;
37365;SDS011;23239;51.504;7.456;2024-01-10T05:29:00;16.7;;;10.6;;
37365;SDS011;23239;51.504;7.456;2024-01-10T05:30:00;16.7;;;10.6;;
37365;SDS011;23239;51.504;7.456;2024-01-10T05:31:00;16.7;;;10.6;;
37365;SDS011;23239;51.504;7.456;2024-01-10T05:32:00;16.7;;;10.6;;
37365;SDS011;23239;51.504;7.456;2024-01-10T05:33:00;16.7;;;10.6;;
37365;SDS011;23239;51.504;7.456;2024-01-10T05:34:00;16.8;;;10.6;;
37365;SDS011;23239;51.504;7.456;2024-01-10T05:35:00;16.8;;;10.6;;
37365;SDS011;23239;51.504;7.456;2024-01-10T05:36:00;16.8;;;10.6;;
37365;SDS011;23239;51.504;7.456;2024-01-10T05:37:00;16.8;;;10.6;;
37365;SDS011;23239;51.504;7.456;2024-01-10T05:38:00;16.8;;;10.6;;
37365;SDS011;23239;51.504;7.456;2024-01-10T05:39:00;16.4;;;10.8;;
37365;SDS011;23239;51.504;7.456;2024-01-10T05:40:00;16.4;;;10.8;;
37365;SDS011;23239;51.504;7.456;2024-01-10T05:41:00;16.4;;;10.8;;
37365;SDS011;23239;51.504;7.456;2024-01-10T05:42:00;16.4;;;10.8;;
37365;SDS011;23239;51.504;7.456;2024-01-10T05:43:00;16.4;;;10.8;;
37365;SDS011;23239;51.504;7.456;2024-01-10T05:44:00;17.3;;;10.7;;
37365;SDS011;23239;51.504;7.456;2024-01-10T05:45:00;17.3;;;10.7;;
37365;SDS011;23239;51.504;7.456;2024-01-10T05:46:00;17.3;;;10.7;;
37365;SDS011;23239;51.504;7.456;2024-01-10T05:47:00;17.3;;;10.7;;
37365;SDS011;23239;51.504;7.456;2024-01-10T05:48:00;17.3;;;10.7;;
37365;SDS011;23239;51.504;7.456;2024-01-10T05:49:00;17.1;;;11.2;;
37365;SDS011;23239;51.504;7.456;2024-01-10T05:50:00;17.1;;;11.2;;
37365;SDS011;23239;51.504;7.456;2024-01-10T05:51:00;17.1;;;11.2;;
37365;SDS011;23239;51.504;7.456;2024-01-10T05:52:00;17.1;;;11.2;;
37365;SDS011;23239;51.504;7.456;2024-01-10T05:53:00;17.1;;;11.2;;
37365;SDS011;23239;51.504;7.456;2024-01-10T05:54:00;16.7;;;11.2;;
37365;SDS011;23239;51.504;7.456;2024-01-10T05:55:00;16.7;;;11.2;;
37365;SDS011;23239;51.504;7.456;2024-01-10T05:56:00;16.7;;;11.2;;
37365;SDS011;23239;51.504;7.456;2024-01-10T05:57:00;16.7;;;11.2;;
37365;SDS011;23239;51.504;7.456;2024-01-10T05:58:00;16.7;;;11.2;;
37365;SDS011;23239;51.504;7.456;2024-01-10T05:59:00;17.9;;;11.6;;
37365;SDS011;23239;51.504;7.456;2024-01-10T06:00:00;17.9;;;11.6;;
37365;SDS011;23239;51.504;7.456;2024-01-10T06:01:00;17.9;;;11.6;;
37365;SDS011;23239;51.504;7.456;2024-01-10T06:02:00;17.9;;;11.6;;
37365;SDS011;23239;51.504;7.456;2024-01-10T06:03:00;17.9;;;11.6;;
37365;SDS011;23239;51.504;7.456;2024-01-10T06:04:00;16.6;;;10.9;;
37365;SDS011;23239;51.504;7.456;2024-01-10T06:05:00;16.6;;;10.9;;